sensor_id;sensor_type;location;lat;lon;timestamp;pressure;altitude;pressure_sealevel;temperature;humidity
60307;BME280;46155;52.364;6.580;2024-02-14T04:02:28;100918.06;;;7.85;100.00
60307;BME280;46155;52.364;6.580;2024-02-14T04:04:53;100929.69;;;7.88;100.00
60307;BME280;46155;52.364;6.580;2024-02-14T04:07:19;100933.06;;;7.87;100.00
60307;BME280;46155;52.364;6.580;2024-02-14T04:09:44;100930.34;;;7.86;100.00
60307;BME280;46155;52.364;6.580;2024-02-14T04:12:09;100933.97;;;7.88;100.00
60307;BME280;46155;52.364;6.580;2024-02-14T04:14:35;100928.84;;;7.89;100.00
60307;BME280;46155;52.364;6.580;2024-02-14T04:17:01;100935.34;;;7.95;100.00
60307;BME280;46155;52.364;6.580;2024-02-14T04:19:27;100925.78;;;7.95;100.00
60307;BME280;46155;52.364;6.580;2024-02-14T04:21:53;100936.50;;;7.98;100.00
60307;BME280;46155;52.364;6.580;2024-02-14T04:24:18;100942.84;;;8.02;100.00
60307;BME280;46155;52.364;6.580;2024-02-14T04:26:44;100943.88;;;8.04;100.00
60307;BME280;46155;52.364;6.580;2024-02-14T04:29:09;100941.94;;;8.01;100.00
60307;BME280;46155;52.364;6.580;2024-02-14T04:31:34;100940.44;;;8.05;100.00
60307;BME280;46155;52.364;6.580;2024-02-14T04:34:00;100942.03;;;8.03;100.00
60307;BME280;46155;52.364;6.580;2024-02-14T04:36:26;100944.66;;;8.03;100.00
60307;BME280;46155;52.364;6.580;2024-02-14T04:38:51;100933.28;;;8.02;100.00
60307;BME280;46155;52.364;6.580;2024-02-14T04:41:21;100943.97;;;8.05;100.00
60307;BME280;46155;52.364;6.580;2024-02-14T04:43:46;100947.72;;;8.09;100.00
60307;BME280;46155;52.364;6.580;2024-02-14T04:46:11;100946.13;;;8.11;100.00
60307;BME280;46155;52.364;6.580;2024-02-14T04:48:37;100943.28;;;8.08;100.00
60307;BME280;46155;52.364;6.580;2024-02-14T04:51:03;100947.94;;;8.12;100.00
60307;BME280;46155;52.364;6.580;2024-02-14T04:53:30;100945.31;;;8.12;100.00
60307;BME280;46155;52.364;6.580;2024-02-14T04:55:55;100942.16;;;8.04;100.00
60307;BME280;46155;52.364;6.580;2024-02-14T04:58:20;100945.56;;;8.15;100.00
60307;BME280;46155;52.364;6.580;2024-02-14T05:00:46;100959.28;;;8.24;100.00
60307;BME280;46155;52.364;6.580;2024-02-14T05:03:11;100959.19;;;8.23;100.00
60307;BME280;46155;52.364;6.580;2024-02-14T05:05:37;100958.50;;;8.25;100.00
60307;BME280;46155;52.364;6.580;2024-02-14T05:08:03;100960.06;;;8.23;100.00
60307;BME280;46155;52.364;6.580;2024-02-14T05:10:28;100959.06;;;8.21;100.00
60307;BME280;46155;52.364;6.580;2024-02-14T05:12:54;100968.03;;;8.25;100.00
60307;BME280;46155;52.364;6.580;2024-02-14T05:15:20;100959.28;;;8.24;100.00
60307;BME280;46155;52.364;6.580;2024-02-14T05:17:45;100968.28;;;8.28;100.00
60307;BME280;46155;52.364;6.580;2024-02-14T05:20:11;100972.00;;;8.32;100.00
60307;BME280;46155;52.364;6.580;2024-02-14T05:22:37;100986.56;;;8.40;100.00
60307;BME280;46155;52.364;6.580;2024-02-14T05:25:03;100983.72;;;8.37;100.00
60307;BME280;46155;52.364;6.580;2024-02-14T05:27:30;100982.81;;;8.36;100.00
60307;BME280;46155;52.364;6.580;2024-02-14T05:29:55;100982.81;;;8.36;100.00
60307;BME280;46155;52.364;6.580;2024-02-14T05:32:20;100981.53;;;8.43;100.00
60307;BME280;46155;52.364;6.580;2024-02-14T05:34:45;100981.69;;;8.44;100.00
60307;BME280;46155;52.364;6.580;2024-02-14T05:37:11;100987.97;;;8.47;100.00
60307;BME280;46155;52.364;6.580;2024-02-14T05:39:36;100998.75;;;8.51;100.00
60307;BME280;46155;52.364;6.580;2024-02-14T05:42:01;100996.03;;;8.50;100.00
60307;BME280;46155;52.364;6.580;2024-02-14T05:44:27;100996.91;;;8.50;100.00
60307;BME280;46155;52.364;6.580;2024-02-14T05:46:55;100993.28;;;8.48;100.00
60307;BME280;46155;52.364;6.580;2024-02-14T05:49:21;100995.34;;;8.52;100.00
60307;BME280;46155;52.364;6.580;2024-02-14T05:51:47;101004.09;;;8.53;100.00
60307;BME280;46155;52.364;6.580;2024-02-14T05:54:12;101007.59;;;8.53;100.00
60307;BME280;46155;52.364;6.580;2024-02-14T05:56:37;101004.97;;;8.53;100.00
60307;BME280;46155;52.364;6.580;2024-02-14T05:59:02;101008.75;;;8.57;100.00
60307;BME280;46155;52.364;6.580;2024-02-14T06:01:28;101018.53;;;8.59;100.00
60307;BME280;46155;52.364;6.580;2024-02-14T06:03:54;101008.84;;;8.58;100.00
60307;BME280;46155;52.364;6.580;2024-02-14T06:06:19;101017.84;;;8.62;100.00
60307;BME280;46155;52.364;6.580;2024-02-14T06:08:44;101014.88;;;8.57;100.00
60307;BME280;46155;52.364;6.580;2024-02-14T06:11:09;101006.22;;;8.58;100.00
60307;BME280;46155;52.364;6.580;2024-02-14T06:13:35;101021.47;;;8.64;100.00
60307;BME280;46155;52.364;6.580;2024-02-14T06:16:03;101027.84;;;8.68;100.00
60307;BME280;46155;52.364;6.580;2024-02-14T06:18:29;101026.91;;;8.67;100.00
60307;BME280;46155;52.364;6.580;2024-02-14T06:20:54;101029.66;;;8.69;100.00
60307;BME280;46155;52.364;6.580;2024-02-14T06:23:19;101028.84;;;8.70;100.00
60307;BME280;46155;52.364;6.580;2024-02-14T06:25:45;101034.88;;;8.69;100.00
60307;BME280;46155;52.364;6.580;2024-02-14T06:28:10;101036.72;;;8.70;100.00
60307;BME280;46155;52.364;6.580;2024-02-14T06:30:36;101040.13;;;8.69;100.00
60307;BME280;46155;52.364;6.580;2024-02-14T06:33:01;101039.75;;;8.76;100.00
60307;BME280;46155;52.364;6.580;2024-02-14T06:35:27;101048.31;;;8.73;100.00
60307;BME280;46155;52.364;6.580;2024-02-14T06:37:53;101049.66;;;8.80;100.00
60307;BME280;46155;52.364;6.580;2024-02-14T06:40:19;101049.53;;;8.78;100.00
60307;BME280;46155;52.364;6.580;2024-02-14T06:42:44;101053.56;;;8.73;100.00
60307;BME280;46155;52.364;6.580;2024-02-14T06:45:09;101055.47;;;8.76;100.00
60307;BME280;46155;52.364;6.580;2024-02-14T06:47:35;101055.59;;;8.77;100.00
60307;BME280;46155;52.364;6.580;2024-02-14T06:50:00;101061.72;;;8.78;100.00
60307;BME280;46155;52.364;6.580;2024-02-14T06:52:26;101061.94;;;8.81;100.00
60307;BME280;46155;52.364;6.580;2024-02-14T06:54:51;101070.84;;;8.83;100.00
60307;BME280;46155;52.364;6.580;2024-02-14T06:57:16;101070.59;;;8.80;100.00
60307;BME280;46155;52.364;6.580;2024-02-14T06:59:43;101084.50;;;8.79;100.00
60307;BME280;46155;52.364;6.580;2024-02-14T07:02:08;101077.34;;;8.76;100.00
60307;BME280;46155;52.364;6.580;2024-02-14T07:04:33;101083.56;;;8.78;100.00
60307;BME280;46155;52.364;6.580;2024-02-14T07:06:58;101092.69;;;8.84;100.00
60307;BME280;46155;52.364;6.580;2024-02-14T07:09:25;101087.56;;;8.85;100.00
60307;BME280;46155;52.364;6.580;2024-02-14T07:11:51;101096.09;;;8.83;100.00
60307;BME280;46155;52.364;6.580;2024-02-14T07:14:18;101099.75;;;8.85;100.00
60307;BME280;46155;52.364;6.580;2024-02-14T07:16:44;101101.44;;;8.84;100.00
60307;BME280;46155;52.364;6.580;2024-02-14T07:19:09;101104.25;;;8.87;100.00
60307;BME280;46155;52.364;6.580;2024-02-14T07:21:34;101101.53;;;8.86;100.00
60307;BME280;46155;52.364;6.580;2024-02-14T07:24:00;101105.41;;;8.91;100.00
60307;BME280;46155;52.364;6.580;2024-02-14T07:26:25;101106.09;;;8.88;100.00
60307;BME280;46155;52.364;6.580;2024-02-14T07:28:50;101108.03;;;8.91;100.00
60307;BME280;46155;52.364;6.580;2024-02-14T07:31:16;101103.94;;;8.94;100.00
60307;BME280;46155;52.364;6.580;2024-02-14T07:33:42;101104.03;;;8.96;100.00
60307;BME280;46155;52.364;6.580;2024-02-14T07:36:08;101109.97;;;8.93;100.00
60307;BME280;46155;52.364;6.580;2024-02-14T07:38:34;101110.75;;;8.92;100.00
60307;BME280;46155;52.364;6.580;2024-02-14T07:40:59;101116.09;;;8.94;100.00
60307;BME280;46155;52.364;6.580;2024-02-14T07:43:24;101111.53;;;8.91;100.00
60307;BME280;46155;52.364;6.580;2024-02-14T07:45:50;101111.78;;;8.94;100.00
60307;BME280;46155;52.364;6.580;2024-02-14T07:48:15;101111.66;;;8.93;100.00
60307;BME280;46155;52.364;6.580;2024-02-14T07:50:40;101117.03;;;8.94;100.00
60307;BME280;46155;52.364;6.580;2024-02-14T07:53:05;101117.25;;;8.98;100.00
60307;BME280;46155;52.364;6.580;2024-02-14T07:55:31;101115.22;;;8.93;100.00
60307;BME280;46155;52.364;6.580;2024-02-14T07:57:56;101119.50;;;8.93;100.00
60307;BME280;46155;52.364;6.580;2024-02-14T08:00:22;101121.34;;;8.94;100.00
60307;BME280;46155;52.364;6.580;2024-02-14T08:02:51;101121.13;;;8.91;100.00
60307;BME280;46155;52.364;6.580;2024-02-14T08:05:16;101123.16;;;8.95;100.00
60307;BME280;46155;52.364;6.580;2024-02-14T08:07:42;101131.13;;;8.96;100.00
60307;BME280;46155;52.364;6.580;2024-02-14T08:10:07;101129.31;;;8.95;100.00
60307;BME280;46155;52.364;6.580;2024-02-14T08:12:34;101133.84;;;8.98;100.00
60307;BME280;46155;52.364;6.580;2024-02-14T08:14:59;101130.34;;;8.98;100.00
60307;BME280;46155;52.364;6.580;2024-02-14T08:17:29;101126.31;;;9.03;100.00
60307;BME280;46155;52.364;6.580;2024-02-14T08:19:54;101124.75;;;9.05;100.00
60307;BME280;46155;52.364;6.580;2024-02-14T08:22:19;101125.31;;;9.01;100.00
60307;BME280;46155;52.364;6.580;2024-02-14T08:24:46;101129.88;;;9.03;100.00
60307;BME280;46155;52.364;6.580;2024-02-14T08:27:11;101122.59;;;8.99;100.00
60307;BME280;46155;52.364;6.580;2024-02-14T08:29:36;101129.78;;;9.02;100.00
60307;BME280;46155;52.364;6.580;2024-02-14T08:32:01;101143.88;;;9.04;100.00
60307;BME280;46155;52.364;6.580;2024-02-14T08:34:28;101137.72;;;9.03;100.00
60307;BME280;46155;52.364;6.580;2024-02-14T08:36:54;101150.00;;;9.04;100.00
60307;BME280;46155;52.364;6.580;2024-02-14T08:39:19;101147.75;;;9.09;100.00
60307;BME280;46155;52.364;6.580;2024-02-14T08:41:45;101138.63;;;9.04;100.00
60307;BME280;46155;52.364;6.580;2024-02-14T08:44:12;101154.78;;;9.10;100.00
60307;BME280;46155;52.364;6.580;2024-02-14T08:46:37;101147.53;;;9.06;100.00
60307;BME280;46155;52.364;6.580;2024-02-14T08:49:04;101148.63;;;9.09;100.00
60307;BME280;46155;52.364;6.580;2024-02-14T08:51:36;101150.22;;;9.19;100.00
60307;BME280;46155;52.364;6.580;2024-02-14T08:54:02;101157.06;;;9.17;100.00
60307;BME280;46155;52.364;6.580;2024-02-14T08:56:33;101154.56;;;9.19;100.00
60307;BME280;46155;52.364;6.580;2024-02-14T08:59:02;101158.19;;;9.21;100.00
60307;BME280;46155;52.364;6.580;2024-02-14T09:01:29;101154.78;;;9.22;100.00
60307;BME280;46155;52.364;6.580;2024-02-14T09:03:54;101159.91;;;9.20;100.00
60307;BME280;46155;52.364;6.580;2024-02-14T09:06:20;101169.56;;;9.21;100.00
60307;BME280;46155;52.364;6.580;2024-02-14T09:08:45;101170.59;;;9.23;100.00
60307;BME280;46155;52.364;6.580;2024-02-14T09:11:11;101164.78;;;9.27;100.00
60307;BME280;46155;52.364;6.580;2024-02-14T09:13:37;101164.88;;;9.29;100.00
60307;BME280;46155;52.364;6.580;2024-02-14T09:16:03;101175.00;;;9.36;100.00
60307;BME280;46155;52.364;6.580;2024-02-14T09:18:28;101167.47;;;9.41;100.00
60307;BME280;46155;52.364;6.580;2024-02-14T09:20:56;101168.38;;;9.41;100.00
60307;BME280;46155;52.364;6.580;2024-02-14T09:23:22;101169.53;;;9.33;100.00
60307;BME280;46155;52.364;6.580;2024-02-14T09:25:49;101159.75;;;9.30;100.00
60307;BME280;46155;52.364;6.580;2024-02-14T09:28:17;101178.72;;;9.40;100.00
60307;BME280;46155;52.364;6.580;2024-02-14T09:30:43;101186.84;;;9.43;100.00
60307;BME280;46155;52.364;6.580;2024-02-14T09:33:09;101176.00;;;9.38;100.00
60307;BME280;46155;52.364;6.580;2024-02-14T09:35:34;101181.59;;;9.43;100.00
60307;BME280;46155;52.364;6.580;2024-02-14T09:38:01;101182.28;;;9.40;100.00
60307;BME280;46155;52.364;6.580;2024-02-14T09:40:26;101187.47;;;9.52;100.00
60307;BME280;46155;52.364;6.580;2024-02-14T09:42:54;101185.91;;;9.54;100.00
60307;BME280;46155;52.364;6.580;2024-02-14T09:45:29;101184.28;;;9.56;100.00
60307;BME280;46155;52.364;6.580;2024-02-14T09:47:56;101189.53;;;9.56;100.00
60307;BME280;46155;52.364;6.580;2024-02-14T09:50:23;101188.72;;;9.57;100.00
60307;BME280;46155;52.364;6.580;2024-02-14T09:52:49;101179.25;;;9.59;100.00
60307;BME280;46155;52.364;6.580;2024-02-14T09:55:15;101194.19;;;9.60;100.00
60307;BME280;46155;52.364;6.580;2024-02-14T09:57:42;101194.97;;;9.59;100.00
60307;BME280;46155;52.364;6.580;2024-02-14T10:00:12;101197.59;;;9.59;100.00
60307;BME280;46155;52.364;6.580;2024-02-14T10:02:40;101194.97;;;9.59;100.00
60307;BME280;46155;52.364;6.580;2024-02-14T10:05:06;101197.38;;;9.56;100.00
60307;BME280;46155;52.364;6.580;2024-02-14T10:07:42;101207.28;;;9.60;100.00
60307;BME280;46155;52.364;6.580;2024-02-14T10:10:08;101208.53;;;9.65;100.00
60307;BME280;46155;52.364;6.580;2024-02-14T10:12:33;101205.66;;;9.62;100.00
60307;BME280;46155;52.364;6.580;2024-02-14T10:14:59;101195.56;;;9.55;100.00
60307;BME280;46155;52.364;6.580;2024-02-14T10:17:24;101212.25;;;9.69;100.00
60307;BME280;46155;52.364;6.580;2024-02-14T10:19:59;101212.25;;;9.69;100.00
60307;BME280;46155;52.364;6.580;2024-02-14T10:22:31;101196.81;;;9.60;100.00
60307;BME280;46155;52.364;6.580;2024-02-14T10:24:57;101212.38;;;9.71;100.00
60307;BME280;46155;52.364;6.580;2024-02-14T10:27:22;101204.72;;;9.74;100.00
60307;BME280;46155;52.364;6.580;2024-02-14T10:29:48;101208.16;;;9.73;100.00
60307;BME280;46155;52.364;6.580;2024-02-14T10:32:16;101208.38;;;9.76;100.00
60307;BME280;46155;52.364;6.580;2024-02-14T10:34:43;101191.19;;;9.68;100.00
60307;BME280;46155;52.364;6.580;2024-02-14T10:37:13;101205.44;;;9.71;100.00
60307;BME280;46155;52.364;6.580;2024-02-14T10:39:41;101216.88;;;9.85;100.00
60307;BME280;46155;52.364;6.580;2024-02-14T10:42:07;101223.56;;;9.93;100.00
60307;BME280;46155;52.364;6.580;2024-02-14T10:44:32;101233.25;;;9.94;100.00
60307;BME280;46155;52.364;6.580;2024-02-14T10:47:00;101218.91;;;9.89;100.00
60307;BME280;46155;52.364;6.580;2024-02-14T10:49:28;101235.50;;;10.02;100.00
60307;BME280;46155;52.364;6.580;2024-02-14T10:51:56;101239.84;;;10.01;100.00
60307;BME280;46155;52.364;6.580;2024-02-14T10:54:25;101214.25;;;9.85;100.00
60307;BME280;46155;52.364;6.580;2024-02-14T10:56:53;101228.91;;;9.95;100.00
60307;BME280;46155;52.364;6.580;2024-02-14T10:59:21;101218.13;;;9.90;100.00
60307;BME280;46155;52.364;6.580;2024-02-14T11:01:48;101242.13;;;9.96;100.00
60307;BME280;46155;52.364;6.580;2024-02-14T11:04:14;101250.00;;;9.96;100.00
60307;BME280;46155;52.364;6.580;2024-02-14T11:06:46;101235.09;;;9.95;100.00
60307;BME280;46155;52.364;6.580;2024-02-14T11:09:12;101218.13;;;9.90;100.00
60307;BME280;46155;52.364;6.580;2024-02-14T11:11:40;101235.31;;;9.98;100.00
60307;BME280;46155;52.364;6.580;2024-02-14T11:14:06;101241.25;;;9.96;100.00
60307;BME280;46155;52.364;6.580;2024-02-14T11:16:32;101236.78;;;9.95;100.00
60307;BME280;46155;52.364;6.580;2024-02-14T11:19:09;101233.69;;;10.00;100.00
60307;BME280;46155;52.364;6.580;2024-02-14T11:21:41;101235.31;;;9.98;100.00
60307;BME280;46155;52.364;6.580;2024-02-14T11:24:10;101225.50;;;9.96;100.00
60307;BME280;46155;52.364;6.580;2024-02-14T11:26:51;101223.56;;;9.93;100.00
60307;BME280;46155;52.364;6.580;2024-02-14T11:29:18;101237.94;;;9.98;100.00
60307;BME280;46155;52.364;6.580;2024-02-14T11:31:44;101235.09;;;9.95;100.00
60307;BME280;46155;52.364;6.580;2024-02-14T11:34:14;101237.03;;;9.98;100.00
60307;BME280;46155;52.364;6.580;2024-02-14T11:36:43;101232.88;;;10.02;100.00
60307;BME280;46155;52.364;6.580;2024-02-14T11:39:09;101228.53;;;10.02;100.00
60307;BME280;46155;52.364;6.580;2024-02-14T11:41:35;101227.44;;;9.98;100.00
60307;BME280;46155;52.364;6.580;2024-02-14T11:44:01;101227.53;;;10.00;100.00
60307;BME280;46155;52.364;6.580;2024-02-14T11:46:30;101185.41;;;9.85;100.00
60307;BME280;46155;52.364;6.580;2024-02-14T11:48:55;101219.78;;;10.02;100.00
60307;BME280;46155;52.364;6.580;2024-02-14T11:51:22;101221.50;;;10.01;100.00
60307;BME280;46155;52.364;6.580;2024-02-14T11:53:47;101222.81;;;10.08;100.00
60307;BME280;46155;52.364;6.580;2024-02-14T11:56:14;101212.00;;;10.03;100.00
60307;BME280;46155;52.364;6.580;2024-02-14T11:58:39;101214.78;;;10.18;100.00
60307;BME280;46155;52.364;6.580;2024-02-14T12:01:05;101215.50;;;10.15;100.00
60307;BME280;46155;52.364;6.580;2024-02-14T12:03:30;101219.00;;;10.16;100.00
60307;BME280;46155;52.364;6.580;2024-02-14T12:05:56;101215.91;;;10.22;100.00
60307;BME280;46155;52.364;6.580;2024-02-14T12:08:22;101215.00;;;10.21;100.00
60307;BME280;46155;52.364;6.580;2024-02-14T12:10:48;101213.16;;;10.20;100.00
60307;BME280;46155;52.364;6.580;2024-02-14T12:13:15;101220.25;;;10.21;100.00
60307;BME280;46155;52.364;6.580;2024-02-14T12:15:44;101210.44;;;10.19;100.00
60307;BME280;46155;52.364;6.580;2024-02-14T12:18:11;101218.53;;;10.22;100.00
60307;BME280;46155;52.364;6.580;2024-02-14T12:20:41;101196.81;;;10.11;100.00
60307;BME280;46155;52.364;6.580;2024-02-14T12:23:07;101198.84;;;10.15;100.00
60307;BME280;46155;52.364;6.580;2024-02-14T12:25:33;101219.44;;;10.22;100.00
60307;BME280;46155;52.364;6.580;2024-02-14T12:27:59;101211.00;;;10.26;100.00
60307;BME280;46155;52.364;6.580;2024-02-14T12:30:43;101166.53;;;10.03;100.00
60307;BME280;46155;52.364;6.580;2024-02-14T12:33:14;101218.97;;;10.28;100.00
60307;BME280;46155;52.364;6.580;2024-02-14T12:35:45;101219.06;;;10.29;100.00
60307;BME280;46155;52.364;6.580;2024-02-14T12:38:12;101212.78;;;10.27;100.00
60307;BME280;46155;52.364;6.580;2024-02-14T12:40:38;101219.75;;;10.27;100.00
60307;BME280;46155;52.364;6.580;2024-02-14T12:43:04;101206.09;;;10.19;100.00
60307;BME280;46155;52.364;6.580;2024-02-14T12:45:31;101197.44;;;10.20;100.00
60307;BME280;46155;52.364;6.580;2024-02-14T12:47:56;101209.56;;;10.31;100.00
60307;BME280;46155;52.364;6.580;2024-02-14T12:50:22;101207.63;;;10.29;100.00
60307;BME280;46155;52.364;6.580;2024-02-14T12:52:47;101176.31;;;10.05;100.00
60307;BME280;46155;52.364;6.580;2024-02-14T12:55:13;101213.63;;;10.26;100.00
60307;BME280;46155;52.364;6.580;2024-02-14T12:57:39;101215.50;;;10.29;100.00
60307;BME280;46155;52.364;6.580;2024-02-14T13:00:06;101195.00;;;10.23;100.00
60307;BME280;46155;52.364;6.580;2024-02-14T13:02:33;101203.53;;;10.32;100.00
60307;BME280;46155;52.364;6.580;2024-02-14T13:04:59;101193.94;;;10.33;100.00
60307;BME280;46155;52.364;6.580;2024-02-14T13:07:24;101190.53;;;10.34;100.00
60307;BME280;46155;52.364;6.580;2024-02-14T13:09:49;101196.00;;;10.37;100.00
60307;BME280;46155;52.364;6.580;2024-02-14T13:12:16;101193.38;;;10.37;100.00
60307;BME280;46155;52.364;6.580;2024-02-14T13:14:41;101198.91;;;10.42;100.00
60307;BME280;46155;52.364;6.580;2024-02-14T13:17:07;101192.06;;;10.44;100.00
60307;BME280;46155;52.364;6.580;2024-02-14T13:19:32;101192.06;;;10.44;100.00
60307;BME280;46155;52.364;6.580;2024-02-14T13:21:58;101192.19;;;10.45;100.00
60307;BME280;46155;52.364;6.580;2024-02-14T13:24:23;101180.44;;;10.40;100.00
60307;BME280;46155;52.364;6.580;2024-02-14T13:26:49;101177.13;;;10.43;100.00
60307;BME280;46155;52.364;6.580;2024-02-14T13:29:14;101176.13;;;10.41;100.00
60307;BME280;46155;52.364;6.580;2024-02-14T13:31:39;101181.19;;;10.51;100.00
60307;BME280;46155;52.364;6.580;2024-02-14T13:34:05;101172.47;;;10.39;100.00
60307;BME280;46155;52.364;6.580;2024-02-14T13:36:30;101189.34;;;10.42;100.00
60307;BME280;46155;52.364;6.580;2024-02-14T13:38:55;101180.88;;;10.46;100.00
60307;BME280;46155;52.364;6.580;2024-02-14T13:41:21;101165.75;;;10.30;100.00
60307;BME280;46155;52.364;6.580;2024-02-14T13:43:46;101191.28;;;10.45;100.00
60307;BME280;46155;52.364;6.580;2024-02-14T13:46:12;101180.19;;;10.49;100.00
60307;BME280;46155;52.364;6.580;2024-02-14T13:48:38;101170.56;;;10.49;100.00
60307;BME280;46155;52.364;6.580;2024-02-14T13:51:04;101178.56;;;10.51;100.00
60307;BME280;46155;52.364;6.580;2024-02-14T13:53:29;101180.38;;;10.52;100.00
60307;BME280;46155;52.364;6.580;2024-02-14T13:55:55;101177.66;;;10.50;100.00
60307;BME280;46155;52.364;6.580;2024-02-14T13:58:21;101175.13;;;10.52;100.00
60307;BME280;46155;52.364;6.580;2024-02-14T14:00:46;101179.78;;;10.56;100.00
60307;BME280;46155;52.364;6.580;2024-02-14T14:03:12;101175.31;;;10.55;100.00
60307;BME280;46155;52.364;6.580;2024-02-14T14:05:37;101173.09;;;10.48;100.00
60307;BME280;46155;52.364;6.580;2024-02-14T14:08:02;101176.31;;;10.57;100.00
60307;BME280;46155;52.364;6.580;2024-02-14T14:10:28;101166.66;;;10.56;100.00
60307;BME280;46155;52.364;6.580;2024-02-14T14:12:54;101150.28;;;10.47;100.00
60307;BME280;46155;52.364;6.580;2024-02-14T14:15:19;101174.13;;;10.63;100.00
60307;BME280;46155;52.364;6.580;2024-02-14T14:17:45;101163.81;;;10.66;100.00
60307;BME280;46155;52.364;6.580;2024-02-14T14:20:10;101166.53;;;10.68;100.00
60307;BME280;46155;52.364;6.580;2024-02-14T14:22:36;101168.28;;;10.67;100.00
60307;BME280;46155;52.364;6.580;2024-02-14T14:25:04;101165.41;;;10.64;100.00
60307;BME280;46155;52.364;6.580;2024-02-14T14:27:29;101170.66;;;10.64;100.00
60307;BME280;46155;52.364;6.580;2024-02-14T14:29:55;101165.13;;;10.60;100.00
60307;BME280;46155;52.364;6.580;2024-02-14T14:32:20;101174.81;;;10.61;100.00
60307;BME280;46155;52.364;6.580;2024-02-14T14:34:45;101156.66;;;10.50;100.00
60307;BME280;46155;52.364;6.580;2024-02-14T14:37:11;101182.81;;;10.62;100.00
60307;BME280;46155;52.364;6.580;2024-02-14T14:39:36;101172.50;;;10.65;100.00
60307;BME280;46155;52.364;6.580;2024-02-14T14:42:02;101171.28;;;10.60;100.00
60307;BME280;46155;52.364;6.580;2024-02-14T14:44:27;101177.06;;;10.68;100.00
60307;BME280;46155;52.364;6.580;2024-02-14T14:46:53;101173.41;;;10.66;100.00
60307;BME280;46155;52.364;6.580;2024-02-14T14:49:19;101172.50;;;10.65;100.00
60307;BME280;46155;52.364;6.580;2024-02-14T14:51:44;101177.94;;;10.68;100.00
60307;BME280;46155;52.364;6.580;2024-02-14T14:54:10;101156.75;;;10.65;100.00
60307;BME280;46155;52.364;6.580;2024-02-14T14:56:35;101169.28;;;10.70;100.00
60307;BME280;46155;52.364;6.580;2024-02-14T14:59:01;101171.09;;;10.71;100.00
60307;BME280;46155;52.364;6.580;2024-02-14T15:01:29;101163.91;;;10.68;100.00
60307;BME280;46155;52.364;6.580;2024-02-14T15:03:55;101164.41;;;10.76;100.00
60307;BME280;46155;52.364;6.580;2024-02-14T15:06:21;101165.84;;;10.71;100.00
60307;BME280;46155;52.364;6.580;2024-02-14T15:08:47;101172.91;;;10.72;100.00
60307;BME280;46155;52.364;6.580;2024-02-14T15:11:13;101176.53;;;10.74;100.00
60307;BME280;46155;52.364;6.580;2024-02-14T15:13:42;101166.94;;;10.61;100.00
60307;BME280;46155;52.364;6.580;2024-02-14T15:16:07;101179.56;;;10.66;100.00
60307;BME280;46155;52.364;6.580;2024-02-14T15:18:34;101185.03;;;10.70;100.00
60307;BME280;46155;52.364;6.580;2024-02-14T15:21:00;101176.16;;;10.67;100.00
60307;BME280;46155;52.364;6.580;2024-02-14T15:23:25;101183.00;;;10.65;100.00
60307;BME280;46155;52.364;6.580;2024-02-14T15:25:51;101188.25;;;10.65;100.00
60307;BME280;46155;52.364;6.580;2024-02-14T15:28:16;101155.63;;;10.48;100.00
60307;BME280;46155;52.364;6.580;2024-02-14T15:30:51;101174.13;;;10.63;100.00
60307;BME280;46155;52.364;6.580;2024-02-14T15:33:34;101172.50;;;10.65;100.00
60307;BME280;46155;52.364;6.580;2024-02-14T15:36:00;101169.78;;;10.64;100.00
60307;BME280;46155;52.364;6.580;2024-02-14T15:38:25;101164.31;;;10.61;100.00
60307;BME280;46155;52.364;6.580;2024-02-14T15:40:52;101177.84;;;10.67;100.00
60307;BME280;46155;52.364;6.580;2024-02-14T15:43:20;101160.91;;;10.62;100.00
60307;BME280;46155;52.364;6.580;2024-02-14T15:45:46;101159.47;;;10.67;100.00
60307;BME280;46155;52.364;6.580;2024-02-14T15:48:12;101183.19;;;10.68;100.00
60307;BME280;46155;52.364;6.580;2024-02-14T15:50:46;101182.19;;;10.66;100.00
60307;BME280;46155;52.364;6.580;2024-02-14T15:53:12;101182.31;;;10.68;100.00
60307;BME280;46155;52.364;6.580;2024-02-14T15:55:38;101185.53;;;10.64;100.00
60307;BME280;46155;52.364;6.580;2024-02-14T15:58:04;101166.41;;;10.53;100.00
60307;BME280;46155;52.364;6.580;2024-02-14T16:00:30;101167.06;;;10.62;100.00
60307;BME280;46155;52.364;6.580;2024-02-14T16:02:57;101171.59;;;10.65;100.00
60307;BME280;46155;52.364;6.580;2024-02-14T16:05:22;101170.66;;;10.64;100.00
60307;BME280;46155;52.364;6.580;2024-02-14T16:07:48;101159.97;;;10.61;100.00
60307;BME280;46155;52.364;6.580;2024-02-14T16:10:14;101157.53;;;10.64;100.00
60307;BME280;46155;52.364;6.580;2024-02-14T16:12:42;101171.59;;;10.65;100.00
60307;BME280;46155;52.364;6.580;2024-02-14T16:15:08;101170.66;;;10.64;100.00
60307;BME280;46155;52.364;6.580;2024-02-14T16:17:34;101165.41;;;10.64;100.00
60307;BME280;46155;52.364;6.580;2024-02-14T16:19:59;101166.94;;;10.61;100.00
60307;BME280;46155;52.364;6.580;2024-02-14T16:22:24;101161.09;;;10.65;100.00
60307;BME280;46155;52.364;6.580;2024-02-14T16:24:49;101159.19;;;10.62;100.00
60307;BME280;46155;52.364;6.580;2024-02-14T16:27:17;101162.00;;;10.65;100.00
60307;BME280;46155;52.364;6.580;2024-02-14T16:29:42;101153.81;;;10.61;100.00
60307;BME280;46155;52.364;6.580;2024-02-14T16:32:08;101149.47;;;10.61;100.00
60307;BME280;46155;52.364;6.580;2024-02-14T16:34:33;101155.16;;;10.67;100.00
60307;BME280;46155;52.364;6.580;2024-02-14T16:36:59;101151.59;;;10.67;100.00
60307;BME280;46155;52.364;6.580;2024-02-14T16:39:24;101158.97;;;10.73;100.00
60307;BME280;46155;52.364;6.580;2024-02-14T16:41:50;101148.25;;;10.70;100.00